Denver, CO

11:13 PM MDT on September 15, 2014 (GMT -0600)
Geography and Env. Sciences, CU Denver | Change Station
CLOSE
Current Station
Personal Weather Station
Location: Denver, CO
Elevation: 5225 ft
Nearby Weather Stations

Elev 5225 ft 39.75 °N, 105.00 °W | Updated 3 minutes ago

Clear
Clear
63.1 °F
Feels Like 63.1 °F
N
2.0
Wind Variable Wind from South
Gusts 3.0 mph

Today
High -- | Low -- °F
--% Chance of Precip.
Yesterday
High -- | Low -- °F
Precip. -- in
6:41 AM 7:08 PM
Waning Gibbous, 49% visible
Pressure 30.14 in
Visibility 10.0 miles
Clouds Few 25000 ft
Dew Point 51 °F
Humidity 64%
Rainfall 0.00 in
Snow Depth 0 in , 0 in , 0 in
UV 0.0 out of 12
Pollen 7.00 out of 12
Ozone Good
PM2.5 Good
Flu Activity Not available.
METAR KAPA 160453Z 18008KT 10SM FEW250 14/10 A3027 RMK AO2 SLP207 T01440100

More Conditions Fewer Conditions

Pressure 30.14 in
Visibility 10.0 miles
Clouds Few 25000 ft
Dew Point 51 °F
Humidity 64%
Rainfall 0.00 in
Snow Depth 0 in , 0 in , 0 in
UV 0.0 out of 12
Pollen 7.00 out of 12
Ozone Good
PM2.5 Good
Flu Activity Not available.
METAR KAPA 160453Z 18008KT 10SM FEW250 14/10 A3027 RMK AO2 SLP207 T01440100

More Conditions Fewer Conditions

10-Day Weather Forecast

Almanac

Astronomy

Sep. 15, 2014 Rise Set
Actual Time 6:41 AM MDT 7:08 PM MDT
Civil Twilight 6:14 AM MDT 7:35 PM MDT
Nautical Twilight 5:42 AM MDT 8:07 PM MDT
Astronomical Twilight 5:09 AM MDT 8:39 PM MDT
Moon 11:54 PM MDT (9/15) 1:42 PM MDT (9/15)
Length of Visible Light 13h 21m
Length of Day
12h 27m
Tomorrow will be 2m 34s shorter.
Waning Gibbous, 49% of the Moon is Illuminated
Sep 16
Waning Gibbous
Sep 24
New
Oct 1
First Quarter
Oct 8
Full
Oct 15
Last Quarter

Yesterday's Extremes

State Highs State Lows

Community

WunderPhotos

Upload Photos

1,753,702 photos uploaded!

Nearby

Air Quality

  Air Quality AQ Index Pollutant
Yesterday Good
OZONE
Yesterday Good
PM10
Current Good
PM2.5
Current Good
OZONE
Monday Good
OZONE
Monday Good
PM2.5
Tuesday Moderate
OZONE
Tuesday Good
PM2.5

Snow Depth

Station Depth Elevation
Wolf Creek Summit 0 in 11000 ft
Roach 0 in 9700 ft
Berthoud Summit 0 in 11300 ft
Independence Pass 187 in 10600 ft
Trapper Lake 0 in 9700 ft

Earthquake Activity

City Distance Mag. Time & Date
No recent earthquake activity has been reported nearby.
Minimum magnitude displayed is 2.5.

Coastal Water Temperatures

Place Temperature
No Stations Reporting

Nearby Weather Stations